ADDS METAR Data INFO
IDs: Format: Raw Decoded Include TAF

Data at: 2251 UTC 22 Jun 2018

KATL 222233Z 31016G24KT 6SM R09R/2200VP6000FT -TSRA BR FEW010 SCT025CB BKN040 OVC150 22/21 A2986 RMK AO2 PK WND 30029/2218 WSHFT 2205 VIS LWR N-E RAB13 OCNL LTGICCG NE-SE TS NE-SE MOV E P0045 T02220206
KATL 222221Z 30023G29KT 1 1/2SM R09R/4000VP6000FT +TSRA FEW010 BKN025CB BKN040 OVC150 24/21 A2989 RMK AO2 PK WND 30029/2218 WSHFT 2205 PRESRR RAB13 FRQ LTGICCG SW-OHD-NE TS SW-OHD-NE MOV E P0000 T02440206
KATL 222214Z COR 31019G27KT 9SM -TSRA FEW010 SCT025CB BKN040 OVC150 25/20 A2985 RMK AO2 PK WND 30027/2214 RAB13 FRQ LTGICCG SW-NW-NE TS SW-NW-NE MOV NE P0000 T02500200
KATL 222152Z 23009KT 10SM VCTS FEW030CB SCT110 BKN150 OVC200 29/21 A2984 RMK AO2 RAE2056 SLP093 TSB40 FRQ LTGICCG NW-N TS VC NW-N MOV NE P0000 T02890211
KATL 222141Z 23011G22KT 10SM VCTS FEW030CB SCT110 BKN150 OVC200 29/21 A2984 RMK AO2 RAE2056 TSB40 OCNL LTGICCG NW TS VC NW MOV NE P0000 T02890211
KATL 222052Z 22010G22KT 10SM -RA SCT039 BKN120 BKN200 29/21 A2983 RMK AO2 LTG DSNT N AND NW RAB47 SLP089 CB DSNT NW-N P0000 60000 T02890211 56020
KATL 221952Z 21010G19KT 10SM SCT047 BKN130 BKN250 32/20 A2984 RMK AO2 SLP094 MDT CU SE-S T03170200
KATL 221852Z 24015G21KT 7SM FEW045 BKN200 32/19 A2987 RMK AO2 SLP102 T03220194
KATL 221752Z 24013G20KT 10SM FEW045 SCT150 BKN250 31/20 A2989 RMK AO2 PK WND 28027/1730 SLP110 T03110200 10311 20228 58003
KATL 221652Z 27013G23KT 10SM FEW040 FEW150 FEW250 30/21 A2990 RMK AO2 SLP113 T03000206
KATL 221552Z 23013KT 10SM FEW040 FEW140 FEW250 29/20 A2990 RMK AO2 SLP112 T02940200
KATL 221452Z 24010KT 10SM FEW030 BKN130 BKN150 28/19 A2990 RMK AO2 SLP113 T02780194 51009
KATL 221352Z 23009KT 10SM FEW150 26/19 A2989 RMK AO2 SLP112 T02610189
KATL 221252Z 24009KT 10SM FEW022 FEW110 SCT150 SCT250 24/19 A2990 RMK AO2 SLP115 ACC W & NW T02440194
KATL 221152Z 22009KT 10SM FEW110 SCT150 SCT200 BKN250 23/19 A2987 RMK AO2 SLP105 ACC DSNT W 60000 70001 T02280194 10228 20222 50000
KATL 221052Z 20008KT 10SM FEW060 SCT100 BKN150 BKN250 22/19 A2986 RMK AO2 RAB0958E14 SLP102 VIRGA DSNT NE-E & NW ACC OHD-ALQDS P0000 T02220194
KATL 220952Z 26009KT 10SM FEW022 SCT060 BKN140 BKN250 22/20 A2989 RMK AO2 SLP112 SHRA SW-NW T02220200
KATL 220852Z 24009KT 10SM FEW005 FEW018 SCT060 SCT250 23/21 A2987 RMK AO2 SLP105 T02280206 53004
KATL 220752Z 25006KT 10SM FEW005 FEW060 SCT250 22/21 A2985 RMK AO2 SLP098 T02220206
KATL 220746Z 26007KT 10SM FEW005 FEW060 SCT250 23/21 A2985 RMK AO2
KATL 220652Z 26006KT 10SM FEW060 SCT250 23/21 A2985 RMK AO2 SLP097 T02280206
KATL 220552Z 27007KT 10SM FEW005 FEW250 23/21 A2986 RMK AO2 SLP099 T02280211 10250 20228 58011
KATL 220452Z 26007KT 10SM FEW007 FEW200 23/22 A2987 RMK AO2 SLP104 T02330217 403110233
KATL 220352Z 23009KT 10SM FEW007 FEW200 24/22 A2988 RMK AO2 SLP107 T02390222
KATL 220252Z 23007KT 10SM FEW100 SCT250 24/22 A2989 RMK AO2 SLP111 T02440222 51004
KATL 220152Z 22006KT 10SM BKN100 BKN200 BKN250 24/22 A2989 RMK AO2 SLP110 T02440222
KATL 220052Z 21004KT 10SM FEW035 SCT100 BKN200 BKN250 24/22 A2988 RMK AO2 SLP109 T02440217
KATL 212352Z 23006KT 10SM SCT110 BKN150 OVC250 25/21 A2988 RMK AO2 RAE06 SLP108 P0000 60001 T02500211 10311 20250 53003
KATL 212252Z 24008KT 10SM -RA FEW070 BKN100 BKN150 OVC200 25/22 A2988 RMK AO2 SLP107 P0001 T02500217
KATL 212152Z 27009KT 10SM -RA FEW020 SCT110 BKN150 BKN200 27/22 A2987 RMK AO2 RAE00B49 SLP104 P0000 T02670217
KATL 212052Z 27007KT 10SM -RA FEW020CB SCT070 BKN100 BKN200 26/23 A2987 RMK AO2 RAB19 SLP103 TS DSIPT CB NE-SE MOV E SHRA VC NE-SE P0000 60000 T02610233 55002
KATL 212047Z 27011KT 10SM -RA FEW020CB SCT070 BKN100 BKN200 26/23 A2987 RMK AO2 LTG DSNT NE RAB19 TS DSIPT CB NE-SE MOV E SHRA VC NE-SE P0000
KATL 212032Z 27013G22KT 7SM VCTS -RA FEW020CB SCT080 BKN110 BKN200 27/22 A2986 RMK AO2 LTG DSNT ALQDS RAB19 OCNL LTGIC VC S-SW TS VC S-SW MOV E P0000 T02670222
KATL 211952Z 26012KT 10SM FEW030 SCT080 BKN150 BKN250 30/22 A2987 RMK AO2 LTG DSNT ALQDS SLP101 CB DSNT N & E-SE & SW-NW SHRA DSNT SW-NW T03000222
KATL 211852Z 24012KT 10SM FEW040 SCT080 BKN150 BKN250 31/22 A2988 RMK AO2 RAB04E19 SLP105 CB DSNT E & S & NW TCU DSNT NE-E & SE-S-SW SHRA DSNT NW P0000 T03110217
KATL 211752Z 26008KT 10SM FEW035 SCT080 BKN200 29/21 A2990 RMK AO2 LTG DSNT E RAB03E29 SLP111 CB DSNT E-SE & DSNT SW MDT CU DSNT NE & NW P0000 60000 T02890211 10311 20256 58012
KATL 211709Z 28011G19KT 9SM -RA BKN034TCU BKN080 BKN200 28/22 A2991 RMK AO2 LTG DSNT SW RAB03 CB DSNT SW TCU E & OHD-S-SW-W P0000 T02830222
KATL 211652Z 27009KT 10SM SCT034TCU SCT150 BKN200 31/22 A2992 RMK AO2 LTG DSNT SW AND W SLP117 CB DSNT SW TCU E-SE-S-SW T03110222
KATL 211552Z 25009KT 10SM FEW035 BKN150 BKN200 29/22 A2993 RMK AO2 LTG DSNT W SLP122 CB DSNT W ACC NE T02940217
KATL 211452Z 22010KT 10SM FEW030 BKN150 BKN200 29/21 A2993 RMK AO2 SLP124 T02940211 50003
KATL 211352Z 23006KT 10SM FEW100 BKN140 BKN250 28/21 A2994 RMK AO2 SLP127 ACC DSNT SW-NW T02830206
KATL 211252Z 24004KT 10SM FEW110 BKN150 BKN200 BKN250 27/21 A2993 RMK AO2 SLP124 ACC DSNT W T02670211
KATL 211152Z 22004KT 9SM SCT150 BKN200 BKN250 26/21 A2992 RMK AO2 SLP121 60000 T02560206 10267 20244 53006
KATL 211052Z 00000KT 10SM SCT150 SCT200 BKN250 26/20 A2992 RMK AO2 SLP118 T02560200